sensor_id;sensor_type;location;lat;lon;timestamp;P1;durP1;ratioP1;P2;durP2;ratioP2
9968;SDS011;5025;48.890;9.278;2022-10-18T00:01:22;4.00;;;3.70;;
9968;SDS011;5025;48.890;9.278;2022-10-18T00:03:48;3.83;;;3.50;;
9968;SDS011;5025;48.890;9.278;2022-10-18T00:06:13;3.60;;;3.40;;
9968;SDS011;5025;48.890;9.278;2022-10-18T00:08:38;6.10;;;3.67;;
9968;SDS011;5025;48.890;9.278;2022-10-18T00:11:04;5.20;;;3.40;;
9968;SDS011;5025;48.890;9.278;2022-10-18T00:13:30;4.23;;;3.10;;
9968;SDS011;5025;48.890;9.278;2022-10-18T00:15:57;4.13;;;3.43;;
9968;SDS011;5025;48.890;9.278;2022-10-18T00:18:24;4.03;;;3.37;;
9968;SDS011;5025;48.890;9.278;2022-10-18T00:23:23;3.60;;;3.30;;
9968;SDS011;5025;48.890;9.278;2022-10-18T00:25:56;3.57;;;3.37;;
9968;SDS011;5025;48.890;9.278;2022-10-18T00:28:22;3.33;;;3.13;;
9968;SDS011;5025;48.890;9.278;2022-10-18T00:30:48;3.70;;;3.40;;
9968;SDS011;5025;48.890;9.278;2022-10-18T00:33:13;4.33;;;3.57;;
9968;SDS011;5025;48.890;9.278;2022-10-18T00:35:38;3.67;;;3.37;;
9968;SDS011;5025;48.890;9.278;2022-10-18T00:38:04;3.60;;;3.30;;
9968;SDS011;5025;48.890;9.278;2022-10-18T00:40:29;3.60;;;3.30;;
9968;SDS011;5025;48.890;9.278;2022-10-18T00:42:54;3.40;;;3.20;;
9968;SDS011;5025;48.890;9.278;2022-10-18T00:45:23;3.30;;;3.10;;
9968;SDS011;5025;48.890;9.278;2022-10-18T00:47:51;3.60;;;3.30;;
9968;SDS011;5025;48.890;9.278;2022-10-18T00:50:20;3.70;;;3.27;;
9968;SDS011;5025;48.890;9.278;2022-10-18T00:52:54;4.00;;;3.70;;
9968;SDS011;5025;48.890;9.278;2022-10-18T00:55:22;4.53;;;3.40;;
9968;SDS011;5025;48.890;9.278;2022-10-18T00:57:49;3.63;;;3.40;;
9968;SDS011;5025;48.890;9.278;2022-10-18T01:00:15;5.80;;;3.80;;
9968;SDS011;5025;48.890;9.278;2022-10-18T01:02:41;3.70;;;3.40;;
9968;SDS011;5025;48.890;9.278;2022-10-18T01:05:09;6.87;;;4.07;;
9968;SDS011;5025;48.890;9.278;2022-10-18T01:10:17;4.10;;;3.80;;
9968;SDS011;5025;48.890;9.278;2022-10-18T01:16:00;4.33;;;3.60;;
9968;SDS011;5025;48.890;9.278;2022-10-18T01:24:12;3.57;;;3.37;;
9968;SDS011;5025;48.890;9.278;2022-10-18T01:32:16;5.17;;;3.70;;
9968;SDS011;5025;48.890;9.278;2022-10-18T01:34:45;3.27;;;3.07;;
9968;SDS011;5025;48.890;9.278;2022-10-18T01:37:13;3.50;;;3.20;;
9968;SDS011;5025;48.890;9.278;2022-10-18T01:39:42;4.70;;;3.40;;
9968;SDS011;5025;48.890;9.278;2022-10-18T01:42:10;3.40;;;3.20;;
9968;SDS011;5025;48.890;9.278;2022-10-18T01:44:38;3.70;;;3.40;;
9968;SDS011;5025;48.890;9.278;2022-10-18T01:47:06;3.53;;;3.33;;
9968;SDS011;5025;48.890;9.278;2022-10-18T01:49:34;3.60;;;3.30;;
9968;SDS011;5025;48.890;9.278;2022-10-18T01:52:00;3.47;;;3.27;;
9968;SDS011;5025;48.890;9.278;2022-10-18T01:54:26;3.67;;;3.37;;
9968;SDS011;5025;48.890;9.278;2022-10-18T01:57:44;3.53;;;3.23;;
9968;SDS011;5025;48.890;9.278;2022-10-18T02:10:59;4.57;;;4.10;;
9968;SDS011;5025;48.890;9.278;2022-10-18T02:13:29;4.27;;;3.80;;
9968;SDS011;5025;48.890;9.278;2022-10-18T02:16:00;6.03;;;3.83;;
9968;SDS011;5025;48.890;9.278;2022-10-18T02:18:35;4.67;;;3.97;;
9968;SDS011;5025;48.890;9.278;2022-10-18T02:21:06;3.63;;;3.33;;
9968;SDS011;5025;48.890;9.278;2022-10-18T02:23:34;3.73;;;3.43;;
9968;SDS011;5025;48.890;9.278;2022-10-18T02:26:01;4.47;;;3.20;;
9968;SDS011;5025;48.890;9.278;2022-10-18T02:28:26;3.80;;;3.50;;
9968;SDS011;5025;48.890;9.278;2022-10-18T02:30:57;6.07;;;3.27;;
9968;SDS011;5025;48.890;9.278;2022-10-18T02:33:49;3.27;;;3.07;;
9968;SDS011;5025;48.890;9.278;2022-10-18T02:36:42;3.40;;;3.10;;
9968;SDS011;5025;48.890;9.278;2022-10-18T02:39:17;4.17;;;3.77;;
9968;SDS011;5025;48.890;9.278;2022-10-18T02:41:45;3.70;;;3.40;;
9968;SDS011;5025;48.890;9.278;2022-10-18T02:44:11;4.10;;;3.70;;
9968;SDS011;5025;48.890;9.278;2022-10-18T02:46:36;3.43;;;3.13;;
9968;SDS011;5025;48.890;9.278;2022-10-18T02:51:32;3.93;;;3.33;;
9968;SDS011;5025;48.890;9.278;2022-10-18T02:53:58;3.63;;;3.33;;
9968;SDS011;5025;48.890;9.278;2022-10-18T02:56:23;3.30;;;3.10;;
9968;SDS011;5025;48.890;9.278;2022-10-18T02:58:49;3.60;;;3.30;;
9968;SDS011;5025;48.890;9.278;2022-10-18T03:01:14;3.57;;;3.30;;
9968;SDS011;5025;48.890;9.278;2022-10-18T03:03:40;3.40;;;3.13;;
9968;SDS011;5025;48.890;9.278;2022-10-18T03:06:05;3.80;;;3.50;;
9968;SDS011;5025;48.890;9.278;2022-10-18T03:08:31;3.60;;;3.40;;
9968;SDS011;5025;48.890;9.278;2022-10-18T03:10:56;3.37;;;3.17;;
9968;SDS011;5025;48.890;9.278;2022-10-18T03:13:22;3.57;;;3.33;;
9968;SDS011;5025;48.890;9.278;2022-10-18T03:15:47;3.40;;;3.20;;
9968;SDS011;5025;48.890;9.278;2022-10-18T03:18:13;3.70;;;3.50;;
9968;SDS011;5025;48.890;9.278;2022-10-18T03:20:39;3.50;;;3.30;;
9968;SDS011;5025;48.890;9.278;2022-10-18T03:23:05;3.60;;;3.30;;
9968;SDS011;5025;48.890;9.278;2022-10-18T03:25:31;3.83;;;3.50;;
9968;SDS011;5025;48.890;9.278;2022-10-18T03:27:57;4.00;;;3.73;;
9968;SDS011;5025;48.890;9.278;2022-10-18T03:30:23;4.63;;;4.23;;
9968;SDS011;5025;48.890;9.278;2022-10-18T03:32:48;4.93;;;3.87;;
9968;SDS011;5025;48.890;9.278;2022-10-18T03:35:14;4.13;;;3.83;;
9968;SDS011;5025;48.890;9.278;2022-10-18T03:37:40;4.13;;;3.70;;
9968;SDS011;5025;48.890;9.278;2022-10-18T03:40:05;4.20;;;3.90;;
9968;SDS011;5025;48.890;9.278;2022-10-18T03:42:32;4.13;;;3.50;;
9968;SDS011;5025;48.890;9.278;2022-10-18T03:44:57;5.13;;;3.47;;
9968;SDS011;5025;48.890;9.278;2022-10-18T03:47:23;4.23;;;3.80;;
9968;SDS011;5025;48.890;9.278;2022-10-18T03:49:48;3.70;;;3.40;;
9968;SDS011;5025;48.890;9.278;2022-10-18T03:52:14;3.57;;;3.37;;
9968;SDS011;5025;48.890;9.278;2022-10-18T03:54:39;3.60;;;3.30;;
9968;SDS011;5025;48.890;9.278;2022-10-18T03:57:05;3.37;;;3.17;;
9968;SDS011;5025;48.890;9.278;2022-10-18T03:59:30;3.50;;;3.27;;
9968;SDS011;5025;48.890;9.278;2022-10-18T04:01:56;3.93;;;3.63;;
9968;SDS011;5025;48.890;9.278;2022-10-18T04:04:21;3.47;;;3.20;;
9968;SDS011;5025;48.890;9.278;2022-10-18T04:06:47;3.93;;;3.63;;
9968;SDS011;5025;48.890;9.278;2022-10-18T04:09:13;3.50;;;3.13;;
9968;SDS011;5025;48.890;9.278;2022-10-18T04:11:38;3.43;;;3.20;;
9968;SDS011;5025;48.890;9.278;2022-10-18T04:14:04;4.53;;;3.50;;
9968;SDS011;5025;48.890;9.278;2022-10-18T04:16:29;3.43;;;3.20;;
9968;SDS011;5025;48.890;9.278;2022-10-18T04:18:55;3.17;;;2.97;;
9968;SDS011;5025;48.890;9.278;2022-10-18T04:21:21;3.70;;;3.40;;
9968;SDS011;5025;48.890;9.278;2022-10-18T04:23:46;3.20;;;3.00;;
9968;SDS011;5025;48.890;9.278;2022-10-18T04:26:12;3.47;;;3.27;;
9968;SDS011;5025;48.890;9.278;2022-10-18T04:28:38;3.10;;;2.90;;
9968;SDS011;5025;48.890;9.278;2022-10-18T04:31:04;3.73;;;3.40;;
9968;SDS011;5025;48.890;9.278;2022-10-18T04:33:30;3.17;;;2.97;;
9968;SDS011;5025;48.890;9.278;2022-10-18T04:35:56;3.20;;;3.00;;
9968;SDS011;5025;48.890;9.278;2022-10-18T04:38:22;3.53;;;3.23;;
9968;SDS011;5025;48.890;9.278;2022-10-18T04:40:48;3.00;;;2.80;;
9968;SDS011;5025;48.890;9.278;2022-10-18T04:43:13;3.30;;;3.10;;
9968;SDS011;5025;48.890;9.278;2022-10-18T04:45:39;3.47;;;3.27;;
9968;SDS011;5025;48.890;9.278;2022-10-18T04:48:05;3.20;;;3.00;;
9968;SDS011;5025;48.890;9.278;2022-10-18T04:50:30;2.90;;;2.70;;
9968;SDS011;5025;48.890;9.278;2022-10-18T04:52:56;3.50;;;3.10;;
9968;SDS011;5025;48.890;9.278;2022-10-18T04:55:21;3.23;;;3.03;;
9968;SDS011;5025;48.890;9.278;2022-10-18T04:57:47;3.10;;;2.90;;
9968;SDS011;5025;48.890;9.278;2022-10-18T05:00:13;3.37;;;3.13;;
9968;SDS011;5025;48.890;9.278;2022-10-18T05:02:38;3.53;;;3.27;;
9968;SDS011;5025;48.890;9.278;2022-10-18T05:05:04;3.10;;;3.00;;
9968;SDS011;5025;48.890;9.278;2022-10-18T05:07:30;2.73;;;2.60;;
9968;SDS011;5025;48.890;9.278;2022-10-18T05:09:55;2.90;;;2.70;;
9968;SDS011;5025;48.890;9.278;2022-10-18T05:12:21;2.93;;;2.70;;
9968;SDS011;5025;48.890;9.278;2022-10-18T05:14:46;3.40;;;3.20;;
9968;SDS011;5025;48.890;9.278;2022-10-18T05:17:12;3.20;;;3.00;;
9968;SDS011;5025;48.890;9.278;2022-10-18T05:19:38;3.13;;;2.80;;
9968;SDS011;5025;48.890;9.278;2022-10-18T05:22:03;3.17;;;2.90;;
9968;SDS011;5025;48.890;9.278;2022-10-18T05:24:29;3.00;;;2.90;;
9968;SDS011;5025;48.890;9.278;2022-10-18T05:26:54;3.43;;;2.90;;
9968;SDS011;5025;48.890;9.278;2022-10-18T05:29:21;3.07;;;2.90;;
9968;SDS011;5025;48.890;9.278;2022-10-18T05:31:47;3.30;;;3.00;;
9968;SDS011;5025;48.890;9.278;2022-10-18T05:34:13;3.30;;;3.00;;
9968;SDS011;5025;48.890;9.278;2022-10-18T05:36:38;4.00;;;3.60;;
9968;SDS011;5025;48.890;9.278;2022-10-18T05:39:05;3.20;;;3.00;;
9968;SDS011;5025;48.890;9.278;2022-10-18T05:41:30;3.13;;;2.80;;
9968;SDS011;5025;48.890;9.278;2022-10-18T05:43:56;3.20;;;3.00;;
9968;SDS011;5025;48.890;9.278;2022-10-18T05:46:21;3.23;;;3.03;;
9968;SDS011;5025;48.890;9.278;2022-10-18T05:48:50;3.40;;;3.20;;
9968;SDS011;5025;48.890;9.278;2022-10-18T05:51:19;3.60;;;3.30;;
9968;SDS011;5025;48.890;9.278;2022-10-18T05:53:44;3.60;;;3.33;;
9968;SDS011;5025;48.890;9.278;2022-10-18T05:56:10;3.80;;;3.50;;
9968;SDS011;5025;48.890;9.278;2022-10-18T05:58:36;4.07;;;3.57;;
9968;SDS011;5025;48.890;9.278;2022-10-18T06:01:02;4.20;;;3.43;;
9968;SDS011;5025;48.890;9.278;2022-10-18T06:03:30;4.17;;;3.77;;
9968;SDS011;5025;48.890;9.278;2022-10-18T06:05:59;3.83;;;3.50;;
9968;SDS011;5025;48.890;9.278;2022-10-18T06:08:26;4.00;;;3.60;;
9968;SDS011;5025;48.890;9.278;2022-10-18T06:10:51;4.97;;;3.60;;
9968;SDS011;5025;48.890;9.278;2022-10-18T06:13:17;4.00;;;3.60;;
9968;SDS011;5025;48.890;9.278;2022-10-18T06:15:42;5.30;;;4.13;;
9968;SDS011;5025;48.890;9.278;2022-10-18T06:18:08;4.30;;;4.00;;
9968;SDS011;5025;48.890;9.278;2022-10-18T06:20:34;4.20;;;3.80;;
9968;SDS011;5025;48.890;9.278;2022-10-18T06:22:59;4.50;;;4.20;;
9968;SDS011;5025;48.890;9.278;2022-10-18T06:25:25;4.40;;;4.00;;
9968;SDS011;5025;48.890;9.278;2022-10-18T06:27:50;4.03;;;3.70;;
9968;SDS011;5025;48.890;9.278;2022-10-18T06:30:16;4.40;;;4.00;;
9968;SDS011;5025;48.890;9.278;2022-10-18T06:32:41;4.87;;;3.50;;
9968;SDS011;5025;48.890;9.278;2022-10-18T06:35:07;4.87;;;3.63;;
9968;SDS011;5025;48.890;9.278;2022-10-18T06:37:32;4.13;;;3.90;;
9968;SDS011;5025;48.890;9.278;2022-10-18T06:39:59;3.93;;;3.60;;
9968;SDS011;5025;48.890;9.278;2022-10-18T06:42:25;4.13;;;3.83;;
9968;SDS011;5025;48.890;9.278;2022-10-18T06:44:50;4.10;;;3.70;;
9968;SDS011;5025;48.890;9.278;2022-10-18T06:47:16;3.93;;;3.63;;
9968;SDS011;5025;48.890;9.278;2022-10-18T06:49:41;3.57;;;3.37;;
9968;SDS011;5025;48.890;9.278;2022-10-18T06:52:06;3.63;;;3.33;;
9968;SDS011;5025;48.890;9.278;2022-10-18T06:54:32;5.13;;;4.00;;
9968;SDS011;5025;48.890;9.278;2022-10-18T06:56:58;4.60;;;4.20;;
9968;SDS011;5025;48.890;9.278;2022-10-18T06:59:23;6.53;;;4.40;;
9968;SDS011;5025;48.890;9.278;2022-10-18T07:01:49;6.53;;;4.47;;
9968;SDS011;5025;48.890;9.278;2022-10-18T07:04:14;4.90;;;4.13;;
9968;SDS011;5025;48.890;9.278;2022-10-18T07:06:39;4.67;;;4.23;;
9968;SDS011;5025;48.890;9.278;2022-10-18T07:09:05;4.33;;;3.93;;
9968;SDS011;5025;48.890;9.278;2022-10-18T07:11:30;5.93;;;4.53;;
9968;SDS011;5025;48.890;9.278;2022-10-18T07:13:58;5.20;;;4.70;;
9968;SDS011;5025;48.890;9.278;2022-10-18T07:16:29;4.97;;;4.37;;
9968;SDS011;5025;48.890;9.278;2022-10-18T07:18:57;6.23;;;4.50;;
9968;SDS011;5025;48.890;9.278;2022-10-18T07:21:26;4.67;;;3.93;;
9968;SDS011;5025;48.890;9.278;2022-10-18T07:23:52;4.67;;;3.90;;
9968;SDS011;5025;48.890;9.278;2022-10-18T07:26:19;6.23;;;5.10;;
9968;SDS011;5025;48.890;9.278;2022-10-18T07:28:46;7.27;;;5.23;;
9968;SDS011;5025;48.890;9.278;2022-10-18T07:31:14;7.57;;;5.07;;
9968;SDS011;5025;48.890;9.278;2022-10-18T07:33:39;7.03;;;4.70;;
9968;SDS011;5025;48.890;9.278;2022-10-18T07:36:07;6.13;;;4.73;;
9968;SDS011;5025;48.890;9.278;2022-10-18T07:38:34;6.27;;;4.60;;
9968;SDS011;5025;48.890;9.278;2022-10-18T07:41:00;4.43;;;4.10;;
9968;SDS011;5025;48.890;9.278;2022-10-18T07:43:27;4.50;;;4.10;;
9968;SDS011;5025;48.890;9.278;2022-10-18T07:45:54;4.73;;;3.87;;
9968;SDS011;5025;48.890;9.278;2022-10-18T07:48:20;4.53;;;3.83;;
9968;SDS011;5025;48.890;9.278;2022-10-18T07:50:46;4.70;;;4.30;;
9968;SDS011;5025;48.890;9.278;2022-10-18T07:53:11;4.30;;;3.90;;
9968;SDS011;5025;48.890;9.278;2022-10-18T07:55:37;4.37;;;3.93;;
9968;SDS011;5025;48.890;9.278;2022-10-18T07:58:02;6.93;;;3.90;;
9968;SDS011;5025;48.890;9.278;2022-10-18T08:00:27;4.13;;;3.67;;
9968;SDS011;5025;48.890;9.278;2022-10-18T08:02:56;4.10;;;3.80;;
9968;SDS011;5025;48.890;9.278;2022-10-18T08:05:23;4.20;;;3.53;;
9968;SDS011;5025;48.890;9.278;2022-10-18T08:07:50;6.47;;;4.80;;
9968;SDS011;5025;48.890;9.278;2022-10-18T08:10:16;5.07;;;4.20;;
9968;SDS011;5025;48.890;9.278;2022-10-18T08:12:42;5.27;;;4.47;;
9968;SDS011;5025;48.890;9.278;2022-10-18T08:15:08;4.27;;;3.97;;
9968;SDS011;5025;48.890;9.278;2022-10-18T08:17:33;4.53;;;4.13;;
9968;SDS011;5025;48.890;9.278;2022-10-18T08:19:59;6.13;;;5.27;;
9968;SDS011;5025;48.890;9.278;2022-10-18T08:22:25;7.40;;;6.10;;
9968;SDS011;5025;48.890;9.278;2022-10-18T08:24:50;6.40;;;5.77;;
9968;SDS011;5025;48.890;9.278;2022-10-18T08:27:16;8.33;;;5.60;;
9968;SDS011;5025;48.890;9.278;2022-10-18T08:29:43;6.50;;;5.20;;
9968;SDS011;5025;48.890;9.278;2022-10-18T08:32:08;5.37;;;4.70;;
9968;SDS011;5025;48.890;9.278;2022-10-18T08:34:34;4.83;;;4.53;;
9968;SDS011;5025;48.890;9.278;2022-10-18T08:37:00;4.30;;;4.00;;
9968;SDS011;5025;48.890;9.278;2022-10-18T08:39:27;4.40;;;4.00;;
9968;SDS011;5025;48.890;9.278;2022-10-18T08:44:47;3.47;;;3.17;;
9968;SDS011;5025;48.890;9.278;2022-10-18T08:50:11;5.40;;;4.90;;
9968;SDS011;5025;48.890;9.278;2022-10-18T08:52:57;7.27;;;4.90;;
9968;SDS011;5025;48.890;9.278;2022-10-18T08:55:35;6.20;;;5.00;;
9968;SDS011;5025;48.890;9.278;2022-10-18T08:58:14;4.80;;;4.30;;
9968;SDS011;5025;48.890;9.278;2022-10-18T09:00:45;3.70;;;3.50;;
9968;SDS011;5025;48.890;9.278;2022-10-18T09:06:34;8.17;;;4.60;;
9968;SDS011;5025;48.890;9.278;2022-10-18T09:20:36;5.40;;;3.90;;
9968;SDS011;5025;48.890;9.278;2022-10-18T09:23:57;3.77;;;3.53;;
9968;SDS011;5025;48.890;9.278;2022-10-18T09:26:21;4.73;;;3.80;;
9968;SDS011;5025;48.890;9.278;2022-10-18T09:34:23;4.43;;;3.70;;
9968;SDS011;5025;48.890;9.278;2022-10-18T09:36:55;3.60;;;3.30;;
9968;SDS011;5025;48.890;9.278;2022-10-18T09:39:21;3.67;;;3.47;;
9968;SDS011;5025;48.890;9.278;2022-10-18T09:41:53;3.80;;;3.50;;
9968;SDS011;5025;48.890;9.278;2022-10-18T09:46:55;3.50;;;3.30;;
9968;SDS011;5025;48.890;9.278;2022-10-18T09:49:35;3.20;;;3.00;;
9968;SDS011;5025;48.890;9.278;2022-10-18T09:52:17;3.57;;;3.23;;
9968;SDS011;5025;48.890;9.278;2022-10-18T09:54:50;3.67;;;2.97;;
9968;SDS011;5025;48.890;9.278;2022-10-18T09:57:21;3.20;;;3.00;;
9968;SDS011;5025;48.890;9.278;2022-10-18T10:00:24;3.53;;;3.27;;
9968;SDS011;5025;48.890;9.278;2022-10-18T10:02:55;3.27;;;3.00;;
9968;SDS011;5025;48.890;9.278;2022-10-18T10:05:20;3.53;;;3.23;;
9968;SDS011;5025;48.890;9.278;2022-10-18T10:07:46;3.60;;;3.40;;
9968;SDS011;5025;48.890;9.278;2022-10-18T10:10:15;3.77;;;3.17;;
9968;SDS011;5025;48.890;9.278;2022-10-18T10:12:46;3.40;;;3.07;;
9968;SDS011;5025;48.890;9.278;2022-10-18T10:15:19;4.20;;;3.23;;
9968;SDS011;5025;48.890;9.278;2022-10-18T10:17:54;3.80;;;3.50;;
9968;SDS011;5025;48.890;9.278;2022-10-18T10:20:43;3.30;;;3.10;;
9968;SDS011;5025;48.890;9.278;2022-10-18T10:23:18;4.50;;;3.63;;
9968;SDS011;5025;48.890;9.278;2022-10-18T10:25:54;4.87;;;3.50;;
9968;SDS011;5025;48.890;9.278;2022-10-18T10:28:35;4.17;;;3.70;;
9968;SDS011;5025;48.890;9.278;2022-10-18T10:33:46;3.90;;;3.60;;
9968;SDS011;5025;48.890;9.278;2022-10-18T10:36:16;4.27;;;3.70;;
9968;SDS011;5025;48.890;9.278;2022-10-18T10:38:43;9.40;;;4.20;;
9968;SDS011;5025;48.890;9.278;2022-10-18T10:41:19;5.83;;;3.80;;
9968;SDS011;5025;48.890;9.278;2022-10-18T10:43:46;6.67;;;3.60;;
9968;SDS011;5025;48.890;9.278;2022-10-18T10:46:16;5.07;;;3.83;;
9968;SDS011;5025;48.890;9.278;2022-10-18T10:48:45;5.77;;;3.93;;
9968;SDS011;5025;48.890;9.278;2022-10-18T10:51:13;4.63;;;3.83;;
9968;SDS011;5025;48.890;9.278;2022-10-18T10:53:45;5.57;;;3.50;;
9968;SDS011;5025;48.890;9.278;2022-10-18T10:56:22;5.33;;;3.40;;
9968;SDS011;5025;48.890;9.278;2022-10-18T10:58:53;4.27;;;3.30;;
9968;SDS011;5025;48.890;9.278;2022-10-18T11:01:26;3.80;;;3.20;;
9968;SDS011;5025;48.890;9.278;2022-10-18T11:03:54;3.97;;;3.50;;
9968;SDS011;5025;48.890;9.278;2022-10-18T11:06:32;4.50;;;3.30;;
9968;SDS011;5025;48.890;9.278;2022-10-18T11:09:07;4.00;;;3.37;;
9968;SDS011;5025;48.890;9.278;2022-10-18T11:11:42;4.17;;;3.27;;
9968;SDS011;5025;48.890;9.278;2022-10-18T11:14:22;4.23;;;3.23;;
9968;SDS011;5025;48.890;9.278;2022-10-18T11:22:26;3.67;;;3.00;;
9968;SDS011;5025;48.890;9.278;2022-10-18T11:24:57;6.63;;;3.13;;
9968;SDS011;5025;48.890;9.278;2022-10-18T11:27:37;3.00;;;2.80;;
9968;SDS011;5025;48.890;9.278;2022-10-18T11:43:54;6.83;;;2.77;;
9968;SDS011;5025;48.890;9.278;2022-10-18T11:46:32;4.13;;;2.60;;
9968;SDS011;5025;48.890;9.278;2022-10-18T11:52:34;2.97;;;2.77;;
9968;SDS011;5025;48.890;9.278;2022-10-18T11:57:33;3.13;;;2.53;;
9968;SDS011;5025;48.890;9.278;2022-10-18T12:03:02;3.20;;;2.90;;
9968;SDS011;5025;48.890;9.278;2022-10-18T12:05:37;5.27;;;2.90;;
9968;SDS011;5025;48.890;9.278;2022-10-18T12:08:15;7.97;;;3.60;;
9968;SDS011;5025;48.890;9.278;2022-10-18T12:10:49;7.00;;;2.90;;
9968;SDS011;5025;48.890;9.278;2022-10-18T12:13:28;4.33;;;2.60;;
9968;SDS011;5025;48.890;9.278;2022-10-18T12:16:18;5.53;;;2.87;;
9968;SDS011;5025;48.890;9.278;2022-10-18T12:18:52;5.97;;;2.70;;
9968;SDS011;5025;48.890;9.278;2022-10-18T12:21:20;5.70;;;2.67;;
9968;SDS011;5025;48.890;9.278;2022-10-18T12:24:33;3.37;;;2.47;;
9968;SDS011;5025;48.890;9.278;2022-10-18T12:26:38;3.53;;;2.50;;
9968;SDS011;5025;48.890;9.278;2022-10-18T12:29:16;5.13;;;2.60;;
9968;SDS011;5025;48.890;9.278;2022-10-18T12:31:53;3.80;;;2.20;;
9968;SDS011;5025;48.890;9.278;2022-10-18T12:34:27;4.40;;;2.77;;
9968;SDS011;5025;48.890;9.278;2022-10-18T12:37:00;5.43;;;2.70;;
9968;SDS011;5025;48.890;9.278;2022-10-18T12:39:29;4.73;;;2.87;;
9968;SDS011;5025;48.890;9.278;2022-10-18T12:42:03;4.03;;;2.77;;
9968;SDS011;5025;48.890;9.278;2022-10-18T12:44:32;2.40;;;2.23;;
9968;SDS011;5025;48.890;9.278;2022-10-18T12:46:59;2.80;;;2.60;;
9968;SDS011;5025;48.890;9.278;2022-10-18T12:49:32;5.03;;;2.60;;
9968;SDS011;5025;48.890;9.278;2022-10-18T12:52:02;3.43;;;2.40;;
9968;SDS011;5025;48.890;9.278;2022-10-18T12:54:32;2.30;;;2.10;;
9968;SDS011;5025;48.890;9.278;2022-10-18T12:57:02;2.50;;;2.30;;
9968;SDS011;5025;48.890;9.278;2022-10-18T13:09:25;2.43;;;1.90;;
9968;SDS011;5025;48.890;9.278;2022-10-18T13:12:34;2.23;;;2.03;;
9968;SDS011;5025;48.890;9.278;2022-10-18T13:20:39;1.70;;;1.60;;
9968;SDS011;5025;48.890;9.278;2022-10-18T13:23:00;2.70;;;2.00;;
9968;SDS011;5025;48.890;9.278;2022-10-18T13:25:57;2.00;;;1.90;;
9968;SDS011;5025;48.890;9.278;2022-10-18T13:28:38;2.30;;;2.10;;
9968;SDS011;5025;48.890;9.278;2022-10-18T13:39:34;2.27;;;2.00;;
9968;SDS011;5025;48.890;9.278;2022-10-18T13:52:30;3.23;;;2.20;;
9968;SDS011;5025;48.890;9.278;2022-10-18T13:58:09;2.43;;;2.30;;
9968;SDS011;5025;48.890;9.278;2022-10-18T14:06:15;2.03;;;1.90;;
9968;SDS011;5025;48.890;9.278;2022-10-18T14:09:06;2.20;;;2.10;;
9968;SDS011;5025;48.890;9.278;2022-10-18T14:11:41;2.50;;;2.10;;
9968;SDS011;5025;48.890;9.278;2022-10-18T14:14:30;2.13;;;2.03;;
9968;SDS011;5025;48.890;9.278;2022-10-18T14:19:38;2.17;;;1.93;;
9968;SDS011;5025;48.890;9.278;2022-10-18T14:24:42;2.10;;;2.00;;
9968;SDS011;5025;48.890;9.278;2022-10-18T14:29:47;2.00;;;1.90;;
9968;SDS011;5025;48.890;9.278;2022-10-18T14:32:24;1.90;;;1.90;;
9968;SDS011;5025;48.890;9.278;2022-10-18T14:34:52;2.40;;;2.20;;
9968;SDS011;5025;48.890;9.278;2022-10-18T14:37:28;1.80;;;1.80;;
9968;SDS011;5025;48.890;9.278;2022-10-18T14:39:57;2.20;;;2.00;;
9968;SDS011;5025;48.890;9.278;2022-10-18T14:42:24;2.53;;;2.30;;
9968;SDS011;5025;48.890;9.278;2022-10-18T14:44:50;3.70;;;2.07;;
9968;SDS011;5025;48.890;9.278;2022-10-18T14:47:21;2.97;;;2.00;;
9968;SDS011;5025;48.890;9.278;2022-10-18T14:49:48;2.77;;;2.20;;
9968;SDS011;5025;48.890;9.278;2022-10-18T14:52:15;2.27;;;2.10;;
9968;SDS011;5025;48.890;9.278;2022-10-18T14:54:43;2.13;;;1.90;;
9968;SDS011;5025;48.890;9.278;2022-10-18T14:57:20;2.83;;;2.20;;
9968;SDS011;5025;48.890;9.278;2022-10-18T14:59:53;3.90;;;2.20;;
9968;SDS011;5025;48.890;9.278;2022-10-18T15:02:23;3.03;;;2.10;;
9968;SDS011;5025;48.890;9.278;2022-10-18T15:04:57;1.90;;;1.90;;
9968;SDS011;5025;48.890;9.278;2022-10-18T15:07:44;2.23;;;2.13;;
9968;SDS011;5025;48.890;9.278;2022-10-18T15:10:15;2.23;;;2.03;;
9968;SDS011;5025;48.890;9.278;2022-10-18T15:12:49;2.37;;;2.27;;
9968;SDS011;5025;48.890;9.278;2022-10-18T15:15:17;2.20;;;2.10;;
9968;SDS011;5025;48.890;9.278;2022-10-18T15:17:45;2.60;;;2.40;;
9968;SDS011;5025;48.890;9.278;2022-10-18T15:20:22;2.30;;;2.20;;
9968;SDS011;5025;48.890;9.278;2022-10-18T15:22:55;2.30;;;2.20;;
9968;SDS011;5025;48.890;9.278;2022-10-18T15:25:48;2.67;;;2.47;;
9968;SDS011;5025;48.890;9.278;2022-10-18T15:28:37;2.30;;;2.20;;
9968;SDS011;5025;48.890;9.278;2022-10-18T15:31:24;2.27;;;2.17;;
9968;SDS011;5025;48.890;9.278;2022-10-18T15:33:53;2.50;;;2.40;;
9968;SDS011;5025;48.890;9.278;2022-10-18T15:36:31;2.57;;;2.37;;
9968;SDS011;5025;48.890;9.278;2022-10-18T15:39:19;2.73;;;2.57;;
9968;SDS011;5025;48.890;9.278;2022-10-18T15:41:55;2.70;;;2.50;;
9968;SDS011;5025;48.890;9.278;2022-10-18T15:47:09;3.10;;;2.50;;
9968;SDS011;5025;48.890;9.278;2022-10-18T15:54:59;2.50;;;2.40;;
9968;SDS011;5025;48.890;9.278;2022-10-18T15:57:25;2.60;;;2.40;;
9968;SDS011;5025;48.890;9.278;2022-10-18T15:59:56;2.70;;;2.60;;
9968;SDS011;5025;48.890;9.278;2022-10-18T16:02:25;2.40;;;2.30;;
9968;SDS011;5025;48.890;9.278;2022-10-18T16:04:51;2.60;;;2.40;;
9968;SDS011;5025;48.890;9.278;2022-10-18T16:07:17;2.60;;;2.50;;
9968;SDS011;5025;48.890;9.278;2022-10-18T16:09:42;2.40;;;2.30;;
9968;SDS011;5025;48.890;9.278;2022-10-18T16:12:07;2.50;;;2.40;;
9968;SDS011;5025;48.890;9.278;2022-10-18T16:14:33;2.73;;;2.63;;
9968;SDS011;5025;48.890;9.278;2022-10-18T16:17:00;2.77;;;2.57;;
9968;SDS011;5025;48.890;9.278;2022-10-18T16:19:27;2.50;;;2.40;;
9968;SDS011;5025;48.890;9.278;2022-10-18T16:21:54;2.70;;;2.50;;
9968;SDS011;5025;48.890;9.278;2022-10-18T16:24:19;2.93;;;2.70;;
9968;SDS011;5025;48.890;9.278;2022-10-18T16:26:46;2.63;;;2.50;;
9968;SDS011;5025;48.890;9.278;2022-10-18T16:29:14;2.80;;;2.70;;
9968;SDS011;5025;48.890;9.278;2022-10-18T16:31:48;2.40;;;2.30;;
9968;SDS011;5025;48.890;9.278;2022-10-18T16:34:15;2.67;;;2.57;;
9968;SDS011;5025;48.890;9.278;2022-10-18T16:36:41;2.70;;;2.50;;
9968;SDS011;5025;48.890;9.278;2022-10-18T16:39:09;2.90;;;2.80;;
9968;SDS011;5025;48.890;9.278;2022-10-18T16:41:38;3.00;;;2.80;;
9968;SDS011;5025;48.890;9.278;2022-10-18T16:44:04;2.90;;;2.70;;
9968;SDS011;5025;48.890;9.278;2022-10-18T16:46:30;2.80;;;2.70;;
9968;SDS011;5025;48.890;9.278;2022-10-18T16:48:57;2.73;;;2.60;;
9968;SDS011;5025;48.890;9.278;2022-10-18T16:51:24;3.10;;;2.83;;
9968;SDS011;5025;48.890;9.278;2022-10-18T16:53:50;2.60;;;2.50;;
9968;SDS011;5025;48.890;9.278;2022-10-18T16:56:18;3.07;;;2.87;;
9968;SDS011;5025;48.890;9.278;2022-10-18T16:58:48;2.70;;;2.60;;
9968;SDS011;5025;48.890;9.278;2022-10-18T17:01:15;2.80;;;2.67;;
9968;SDS011;5025;48.890;9.278;2022-10-18T17:03:42;3.10;;;2.90;;
9968;SDS011;5025;48.890;9.278;2022-10-18T17:06:15;3.07;;;2.93;;
9968;SDS011;5025;48.890;9.278;2022-10-18T17:08:42;2.83;;;2.73;;
9968;SDS011;5025;48.890;9.278;2022-10-18T17:11:08;3.00;;;2.90;;
9968;SDS011;5025;48.890;9.278;2022-10-18T17:13:35;2.93;;;2.83;;
9968;SDS011;5025;48.890;9.278;2022-10-18T17:16:00;2.90;;;2.80;;
9968;SDS011;5025;48.890;9.278;2022-10-18T17:18:27;3.30;;;3.10;;
9968;SDS011;5025;48.890;9.278;2022-10-18T17:20:54;3.50;;;3.30;;
9968;SDS011;5025;48.890;9.278;2022-10-18T17:23:21;3.00;;;2.90;;
9968;SDS011;5025;48.890;9.278;2022-10-18T17:25:46;3.00;;;2.80;;
9968;SDS011;5025;48.890;9.278;2022-10-18T17:28:13;2.90;;;2.80;;
9968;SDS011;5025;48.890;9.278;2022-10-18T17:30:40;3.27;;;3.07;;
9968;SDS011;5025;48.890;9.278;2022-10-18T17:33:06;3.40;;;3.20;;
9968;SDS011;5025;48.890;9.278;2022-10-18T17:35:31;3.03;;;2.93;;
9968;SDS011;5025;48.890;9.278;2022-10-18T17:37:57;3.10;;;2.90;;
9968;SDS011;5025;48.890;9.278;2022-10-18T17:40:22;3.43;;;3.23;;
9968;SDS011;5025;48.890;9.278;2022-10-18T17:42:51;3.03;;;2.83;;
9968;SDS011;5025;48.890;9.278;2022-10-18T17:45:20;2.93;;;2.83;;
9968;SDS011;5025;48.890;9.278;2022-10-18T17:47:45;3.20;;;3.00;;
9968;SDS011;5025;48.890;9.278;2022-10-18T17:50:11;3.27;;;3.07;;
9968;SDS011;5025;48.890;9.278;2022-10-18T17:52:40;3.43;;;3.23;;
9968;SDS011;5025;48.890;9.278;2022-10-18T17:55:10;3.13;;;2.83;;
9968;SDS011;5025;48.890;9.278;2022-10-18T17:57:37;3.50;;;3.30;;
9968;SDS011;5025;48.890;9.278;2022-10-18T18:00:03;3.17;;;3.00;;